createdAt,value
2022-11-02T00:00:32.327Z,51.0
2022-11-02T00:01:36.676Z,51.0
2022-11-02T00:02:49.598Z,51.0
2022-11-02T00:04:02.806Z,50.9
2022-11-02T00:05:05.298Z,51.0
2022-11-02T00:06:18.951Z,51.0
2022-11-02T00:07:31.365Z,51.0
2022-11-02T00:08:34.842Z,51.0
2022-11-02T00:09:47.250Z,51.0
2022-11-02T00:11:00.347Z,51.0
2022-11-02T00:12:02.859Z,51.0
2022-11-02T00:13:16.333Z,51.0
2022-11-02T00:14:28.753Z,51.0
2022-11-02T00:15:41.849Z,51.0
2022-11-02T00:16:44.358Z,51.0
2022-11-02T00:17:57.418Z,51.0
2022-11-02T00:19:10.009Z,51.0
2022-11-02T00:20:13.318Z,51.0
2022-11-02T00:21:25.913Z,51.0
2022-11-02T00:22:39.350Z,51.0
2022-11-02T00:23:41.873Z,51.0
2022-11-02T00:24:55.359Z,51.0
2022-11-02T00:26:07.792Z,50.9
2022-11-02T00:27:20.831Z,50.9
2022-11-02T00:28:23.357Z,50.9
2022-11-02T00:29:46.331Z,50.9
2022-11-02T00:30:48.906Z,51.0
2022-11-02T00:31:52.401Z,51.0
2022-11-02T00:33:05.127Z,51.0
2022-11-02T00:34:18.851Z,51.0
2022-11-02T00:35:21.422Z,50.9
2022-11-02T00:36:34.815Z,51.0
2022-11-02T00:37:47.233Z,50.9
2022-11-02T00:39:00.358Z,50.9
2022-11-02T00:40:02.874Z,50.9
2022-11-02T00:41:16.416Z,50.9
2022-11-02T00:42:28.856Z,50.8
2022-11-02T00:43:32.346Z,50.9
2022-11-02T00:44:44.819Z,50.9
2022-11-02T00:45:58.326Z,50.9
2022-11-02T00:47:00.898Z,50.9
2022-11-02T00:48:14.336Z,50.9
2022-11-02T00:49:26.744Z,50.9
2022-11-02T00:50:39.836Z,50.9
2022-11-02T00:51:42.395Z,50.8
2022-11-02T00:52:55.838Z,50.8
2022-11-02T00:54:08.408Z,50.8
2022-11-02T00:55:11.837Z,50.8
2022-11-02T00:56:24.267Z,50.8
2022-11-02T00:57:37.312Z,50.7
2022-11-02T00:58:39.799Z,50.9
2022-11-02T00:59:53.356Z,50.8
2022-11-02T01:01:05.851Z,50.9
2022-11-02T01:02:19.522Z,50.8
2022-11-02T01:03:22.203Z,50.9
2022-11-02T01:04:35.335Z,50.8
2022-11-02T01:05:47.819Z,50.8
2022-11-02T01:06:51.339Z,50.7
2022-11-02T01:08:04.194Z,50.7
2022-11-02T01:09:17.808Z,50.6
2022-11-02T01:10:20.367Z,50.6
2022-11-02T01:14:02.635Z,50.6
2022-11-02T01:15:05.103Z,50.6
2022-11-02T01:16:18.172Z,50.6
2022-11-02T01:17:20.676Z,50.5
2022-11-02T01:18:34.148Z,50.5
2022-11-02T01:19:46.877Z,50.5
2022-11-02T01:20:50.156Z,50.5
2022-11-02T01:22:02.561Z,50.4
2022-11-02T01:23:15.670Z,50.4
2022-11-02T01:24:18.162Z,50.4
2022-11-02T01:25:31.657Z,50.4
2022-11-02T01:26:44.086Z,50.4
2022-11-02T01:27:57.172Z,50.4
2022-11-02T01:28:59.660Z,50.4
2022-11-02T01:30:13.169Z,50.4
2022-11-02T01:31:25.611Z,50.3
2022-11-02T01:32:28.692Z,50.3
2022-11-02T01:33:41.143Z,50.3
2022-11-02T01:34:54.186Z,50.4
2022-11-02T01:36:06.639Z,50.3
2022-11-02T01:37:10.152Z,50.3
2022-11-02T01:38:22.635Z,50.2
2022-11-02T01:39:45.652Z,50.3
2022-11-02T01:40:38.235Z,50.3
2022-11-02T01:41:51.667Z,50.2
2022-11-02T01:43:04.102Z,50.3
2022-11-02T01:44:17.655Z,50.2
2022-11-02T01:45:20.224Z,50.1
2022-11-02T01:46:33.681Z,50.1
2022-11-02T01:47:46.197Z,50.2
2022-11-02T01:48:49.652Z,50.2
2022-11-02T01:50:02.095Z,50.2
2022-11-02T01:51:15.242Z,50.2
2022-11-02T01:52:17.769Z,50.1
2022-11-02T01:53:31.486Z,50.1
2022-11-02T01:54:43.963Z,50.1
2022-11-02T01:55:57.172Z,50.0
2022-11-02T01:56:59.725Z,50.0
2022-11-02T01:58:13.201Z,50.1
2022-11-02T01:59:25.641Z,50.0
2022-11-02T02:00:29.175Z,50.1
2022-11-02T02:01:41.793Z,50.0
2022-11-02T02:02:55.291Z,50.0
2022-11-02T02:03:57.955Z,50.0
2022-11-02T02:05:11.157Z,50.0
2022-11-02T02:07:39.529Z,49.9
2022-11-02T02:08:42.067Z,49.9
2022-11-02T02:09:55.174Z,49.9
2022-11-02T02:10:57.684Z,49.8
2022-11-02T02:12:11.183Z,49.9
2022-11-02T02:13:23.626Z,49.8
2022-11-02T02:14:27.181Z,49.8
2022-11-02T02:15:39.627Z,49.9
2022-11-02T02:16:52.683Z,49.9
2022-11-02T02:18:05.540Z,49.7
2022-11-02T02:19:09.143Z,49.8
2022-11-02T02:20:21.584Z,49.8
2022-11-02T02:21:34.692Z,49.7
2022-11-02T02:22:37.194Z,49.8
2022-11-02T02:23:50.693Z,49.7
2022-11-02T02:25:03.119Z,49.8
2022-11-02T02:26:06.671Z,49.8
2022-11-02T02:27:19.186Z,49.8
2022-11-02T02:28:32.177Z,49.8
2022-11-02T02:29:44.700Z,49.8
2022-11-02T02:30:48.185Z,49.9
2022-11-02T02:32:00.657Z,49.8
2022-11-02T02:33:14.160Z,49.8
2022-11-02T02:34:16.691Z,49.9
2022-11-02T02:35:29.683Z,49.8
2022-11-02T02:37:01.778Z,49.8
2022-11-02T02:37:55.174Z,50.0
2022-11-02T02:38:57.708Z,49.9
2022-11-02T02:40:11.172Z,49.9
2022-11-02T02:41:23.599Z,49.9
2022-11-02T02:42:27.195Z,50.0
2022-11-02T02:43:39.636Z,49.9
2022-11-02T02:44:52.684Z,50.0
2022-11-02T02:45:55.199Z,49.8
2022-11-02T02:47:08.669Z,49.9
2022-11-02T02:48:21.101Z,49.9
2022-11-02T02:49:34.161Z,49.9
2022-11-02T02:50:36.675Z,50.0
2022-11-02T02:51:50.190Z,50.0
2022-11-02T02:53:02.685Z,49.9
2022-11-02T02:54:06.187Z,50.0
2022-11-02T02:55:18.667Z,50.1
2022-11-02T02:56:32.268Z,50.1
2022-11-02T02:57:34.836Z,50.0
2022-11-02T02:58:48.176Z,50.0
2022-11-02T03:00:00.675Z,49.9
2022-11-02T03:01:04.703Z,50.0
2022-11-02T03:02:17.288Z,50.0
2022-11-02T03:03:30.686Z,50.0
2022-11-02T03:04:33.253Z,50.0
2022-11-02T03:05:46.673Z,50.0
2022-11-02T03:06:59.138Z,50.0
2022-11-02T03:08:12.216Z,50.0
2022-11-02T03:09:14.744Z,50.1
2022-11-02T03:10:28.261Z,50.1
2022-11-02T03:11:40.787Z,50.1
2022-11-02T03:12:44.181Z,50.1
2022-11-02T03:13:56.624Z,50.1
2022-11-02T03:15:09.698Z,50.1
2022-11-02T03:16:12.265Z,50.0
2022-11-02T03:17:25.677Z,49.9
2022-11-02T03:18:38.145Z,50.0
2022-11-02T03:19:51.696Z,50.0
2022-11-02T03:20:54.218Z,50.0
2022-11-02T03:22:07.685Z,50.1
2022-11-02T03:23:20.157Z,50.0
2022-11-02T03:24:23.704Z,50.1
2022-11-02T03:25:36.160Z,50.1
2022-11-02T03:26:49.679Z,50.1
2022-11-02T03:27:52.245Z,50.2
2022-11-02T03:29:05.718Z,50.1
2022-11-02T03:30:18.181Z,50.2
2022-11-02T03:31:21.686Z,50.2
2022-11-02T03:32:34.143Z,50.2
2022-11-02T03:33:47.277Z,50.2
2022-11-02T03:34:49.824Z,50.1
2022-11-02T03:36:03.173Z,50.0
2022-11-02T03:37:15.642Z,50.1
2022-11-02T03:38:28.687Z,50.0
2022-11-02T03:39:31.256Z,50.1
2022-11-02T03:40:44.701Z,50.1
2022-11-02T03:41:57.159Z,50.1
2022-11-02T03:43:00.673Z,50.1
2022-11-02T03:44:13.160Z,50.1
2022-11-02T03:45:26.213Z,50.1
2022-11-02T03:46:28.747Z,50.0
2022-11-02T03:48:02.181Z,50.1
2022-11-02T03:48:55.192Z,50.2
2022-11-02T03:50:08.718Z,49.9
2022-11-02T03:51:11.277Z,50.0
2022-11-02T03:52:24.703Z,50.1
2022-11-02T03:53:37.167Z,50.0
2022-11-02T03:54:40.670Z,50.0
2022-11-02T03:55:53.149Z,50.1
2022-11-02T03:57:06.231Z,50.1
2022-11-02T03:58:08.779Z,50.1
2022-11-02T03:59:22.208Z,50.1
2022-11-02T04:00:34.668Z,50.1
2022-11-02T04:01:38.346Z,50.1
2022-11-02T04:02:51.110Z,50.0
2022-11-02T04:04:04.735Z,50.1
2022-11-02T04:05:07.260Z,50.1
2022-11-02T04:06:20.723Z,50.1
2022-11-02T04:07:33.185Z,50.0
2022-11-02T04:08:36.728Z,50.0
2022-11-02T04:11:16.185Z,50.0
2022-11-02T04:12:08.922Z,50.1
2022-11-02T04:13:22.247Z,50.1
2022-11-02T04:14:34.742Z,50.1
2022-11-02T04:15:38.314Z,50.1
2022-11-02T04:16:50.760Z,50.1
2022-11-02T04:18:04.502Z,50.1
2022-11-02T04:19:07.485Z,50.1
2022-11-02T04:20:20.706Z,50.1
2022-11-02T04:21:33.242Z,50.1
2022-11-02T04:22:36.726Z,50.0
2022-11-02T04:23:49.202Z,50.0
2022-11-02T04:25:02.341Z,50.1
2022-11-02T04:26:04.912Z,50.1
2022-11-02T04:27:20.947Z,50.1
2022-11-02T04:28:24.005Z,50.1
2022-11-02T04:29:37.307Z,50.1
2022-11-02T04:30:49.792Z,50.1
2022-11-02T04:32:03.316Z,50.1
2022-11-02T04:33:05.886Z,50.1
2022-11-02T04:34:19.262Z,50.1
2022-11-02T04:35:31.718Z,50.0
2022-11-02T04:36:35.219Z,50.1
2022-11-02T04:37:47.794Z,50.1
2022-11-02T04:39:01.226Z,50.2
2022-11-02T04:40:03.838Z,50.1
2022-11-02T04:41:17.217Z,50.2
2022-11-02T04:42:29.719Z,50.2
2022-11-02T04:43:33.212Z,50.2
2022-11-02T04:44:45.681Z,50.2
2022-11-02T04:45:59.220Z,50.2
2022-11-02T04:47:01.879Z,50.1
2022-11-02T04:48:15.229Z,50.2
2022-11-02T04:49:27.994Z,50.2
2022-11-02T04:50:41.258Z,50.2
2022-11-02T04:51:47.122Z,50.2
2022-11-02T04:52:52.229Z,50.2
2022-11-02T04:54:04.707Z,50.2
2022-11-02T04:55:17.722Z,50.2
2022-11-02T04:56:30.070Z,50.1
2022-11-02T04:57:33.258Z,50.1
2022-11-02T04:58:45.568Z,50.1
2022-11-02T04:59:58.780Z,50.0
2022-11-02T05:01:01.354Z,50.1
2022-11-02T05:02:14.830Z,49.9
2022-11-02T05:03:27.470Z,49.9
2022-11-02T05:04:41.253Z,49.8
2022-11-02T05:05:43.792Z,49.8
2022-11-02T05:07:01.215Z,49.8
2022-11-02T05:08:04.579Z,49.7
2022-11-02T05:09:18.244Z,49.7
2022-11-02T05:10:20.829Z,49.7
2022-11-02T05:11:34.250Z,49.7
2022-11-02T05:12:46.747Z,49.7
2022-11-02T05:14:00.223Z,49.7
2022-11-02T05:15:02.804Z,49.7
2022-11-02T05:16:16.234Z,49.7
2022-11-02T05:17:28.800Z,49.8
2022-11-02T05:18:32.236Z,49.8
2022-11-02T05:19:44.821Z,49.8
2022-11-02T05:20:58.257Z,49.9
2022-11-02T05:22:01.820Z,49.9
2022-11-02T05:23:15.254Z,50.0
2022-11-02T05:24:27.744Z,49.9
2022-11-02T05:25:31.264Z,50.0
2022-11-02T05:26:43.751Z,49.9
2022-11-02T05:27:57.244Z,50.0
2022-11-02T05:28:59.799Z,49.9
2022-11-02T05:30:13.244Z,50.1
2022-11-02T05:31:25.738Z,50.2
2022-11-02T05:32:29.228Z,50.2
2022-11-02T05:34:01.414Z,50.2
2022-11-02T05:34:54.745Z,50.2
2022-11-02T05:36:07.256Z,50.2
2022-11-02T05:37:10.742Z,50.1
2022-11-02T05:38:23.205Z,50.2
2022-11-02T05:39:36.741Z,50.1
2022-11-02T05:40:39.334Z,50.1
2022-11-02T05:41:52.759Z,50.1
2022-11-02T05:43:05.426Z,50.2
2022-11-02T05:44:18.731Z,50.2
2022-11-02T05:45:23.695Z,50.2
2022-11-02T05:46:37.769Z,50.3
2022-11-02T05:47:40.326Z,50.3
2022-11-02T05:49:03.758Z,50.3
2022-11-02T05:50:06.402Z,50.3
2022-11-02T05:51:09.784Z,50.3
2022-11-02T05:52:22.345Z,50.4
2022-11-02T05:53:35.769Z,50.4
2022-11-02T05:54:38.424Z,50.4
2022-11-02T05:55:51.755Z,50.5
2022-11-02T05:57:04.209Z,50.5
2022-11-02T05:58:17.740Z,50.5
2022-11-02T05:59:20.314Z,50.6
2022-11-02T06:00:33.770Z,50.1
2022-11-02T06:01:46.324Z,48.8
2022-11-02T06:02:49.781Z,47.1
2022-11-02T06:05:29.671Z,44.4
2022-11-02T06:06:22.346Z,45.0
2022-11-02T06:07:35.627Z,44.3
2022-11-02T06:08:38.101Z,43.3
2022-11-02T06:09:51.129Z,43.5
2022-11-02T06:11:03.663Z,43.9
2022-11-02T06:12:16.654Z,42.4
2022-11-02T06:13:19.997Z,40.6
2022-11-02T06:14:33.167Z,40.7
2022-11-02T06:15:45.981Z,39.4
2022-11-02T06:16:49.169Z,39.4
2022-11-02T06:18:01.491Z,38.5
2022-11-02T06:20:17.146Z,39.1
2022-11-02T06:21:30.948Z,38.8
2022-11-02T06:22:43.273Z,37.6
2022-11-02T06:23:56.640Z,38.4
2022-11-02T06:24:59.147Z,38.4
2022-11-02T06:26:12.475Z,38.8
2022-11-02T06:27:24.798Z,39.2
2022-11-02T06:28:28.185Z,39.5
2022-11-02T06:29:40.463Z,39.9
2022-11-02T06:30:53.659Z,40.0
2022-11-02T06:32:05.961Z,40.1
2022-11-02T06:33:09.585Z,40.1
2022-11-02T06:34:22.177Z,40.4
2022-11-02T06:35:35.158Z,40.4
2022-11-02T06:36:37.554Z,40.4
2022-11-02T06:37:51.142Z,40.5
2022-11-02T06:39:03.476Z,40.7
2022-11-02T06:40:06.643Z,40.8
2022-11-02T06:41:19.019Z,41.1
2022-11-02T06:42:36.874Z,41.4
2022-11-02T06:43:37.665Z,41.6
2022-11-02T06:44:51.137Z,41.9
2022-11-02T06:46:03.564Z,42.1
2022-11-02T06:47:06.677Z,42.3
2022-11-02T06:48:19.103Z,42.5
2022-11-02T06:49:32.124Z,42.7
2022-11-02T06:50:44.577Z,42.9
2022-11-02T06:51:48.166Z,43.1
2022-11-02T06:53:00.633Z,43.3
2022-11-02T06:54:14.149Z,43.4
2022-11-02T06:55:16.711Z,43.6
2022-11-02T06:56:30.142Z,43.8
2022-11-02T06:57:42.620Z,43.9
2022-11-02T06:58:56.144Z,44.0
2022-11-02T06:59:58.717Z,44.1
2022-11-02T07:01:12.245Z,44.2
2022-11-02T07:02:24.938Z,44.4
2022-11-02T07:03:28.650Z,44.4
2022-11-02T07:04:41.122Z,44.5
2022-11-02T07:05:54.128Z,44.7
2022-11-02T07:06:57.069Z,44.7
2022-11-02T07:08:10.194Z,44.6
2022-11-02T07:09:22.553Z,44.5
2022-11-02T07:10:35.645Z,44.4
2022-11-02T07:11:38.060Z,44.3
2022-11-02T07:12:51.171Z,44.1
2022-11-02T07:14:03.594Z,43.9
2022-11-02T07:15:06.649Z,43.8
2022-11-02T07:16:18.907Z,43.6
2022-11-02T07:17:32.497Z,43.5
2022-11-02T07:18:44.934Z,43.3
2022-11-02T07:19:48.159Z,43.2
2022-11-02T07:21:00.371Z,43.1
2022-11-02T07:22:13.689Z,42.9
2022-11-02T07:23:16.079Z,42.9
2022-11-02T07:24:29.170Z,42.8
2022-11-02T07:25:41.377Z,42.7
2022-11-02T07:26:55.172Z,42.5
2022-11-02T07:27:57.460Z,42.4
2022-11-02T07:29:10.688Z,42.3
2022-11-02T07:30:22.928Z,42.3
2022-11-02T07:31:26.136Z,42.2
2022-11-02T07:32:38.236Z,42.1
2022-11-02T07:33:51.143Z,42.0
2022-11-02T07:35:03.255Z,42.0
2022-11-02T07:36:06.189Z,41.9
2022-11-02T07:37:18.371Z,41.8
2022-11-02T07:38:31.183Z,41.8
2022-11-02T07:39:43.349Z,41.7
2022-11-02T07:40:46.652Z,41.6
2022-11-02T07:41:58.838Z,41.6
2022-11-02T07:43:11.662Z,41.5
2022-11-02T07:44:13.879Z,41.4
2022-11-02T07:45:26.692Z,41.4
2022-11-02T07:46:38.833Z,41.3
2022-11-02T07:47:51.655Z,41.3
2022-11-02T07:48:53.919Z,41.3
2022-11-02T07:50:07.179Z,41.2
2022-11-02T07:51:19.268Z,41.1
2022-11-02T07:53:58.983Z,41.1
2022-11-02T07:54:51.399Z,41.1
2022-11-02T07:55:53.571Z,41.0
2022-11-02T07:57:06.592Z,40.8
2022-11-02T07:58:18.712Z,40.7
2022-11-02T07:59:31.600Z,40.7
2022-11-02T08:00:33.779Z,40.6
2022-11-02T08:01:46.601Z,40.5
2022-11-02T08:02:58.858Z,40.5
2022-11-02T08:04:02.109Z,40.4
2022-11-02T08:05:14.131Z,40.4
2022-11-02T08:06:27.070Z,40.3
2022-11-02T08:07:39.091Z,40.3
2022-11-02T08:08:42.109Z,40.2
2022-11-02T08:09:54.190Z,40.1
2022-11-02T08:11:07.120Z,40.1
2022-11-02T08:12:19.217Z,40.1
2022-11-02T08:13:22.182Z,40.1
2022-11-02T08:14:34.264Z,40.0
2022-11-02T08:15:47.134Z,40.0
2022-11-02T08:16:49.357Z,40.0
2022-11-02T08:18:02.401Z,39.9
2022-11-02T08:19:14.803Z,39.9
2022-11-02T08:20:27.653Z,39.9
2022-11-02T08:21:29.850Z,39.8
2022-11-02T08:22:42.599Z,39.8
2022-11-02T08:23:58.341Z,39.7
2022-11-02T08:25:01.692Z,39.6
2022-11-02T08:26:13.813Z,39.7
2022-11-02T08:27:26.599Z,39.6
2022-11-02T08:28:28.736Z,39.5
2022-11-02T08:29:41.588Z,39.6
2022-11-02T08:30:53.566Z,39.6
2022-11-02T08:31:56.626Z,39.6
2022-11-02T08:33:08.807Z,39.5
2022-11-02T08:34:21.626Z,39.5
2022-11-02T08:35:33.597Z,39.4
2022-11-02T08:36:36.619Z,39.5
2022-11-02T08:37:48.921Z,39.5
2022-11-02T08:39:01.597Z,39.5
2022-11-02T08:40:13.625Z,39.5
2022-11-02T08:41:16.610Z,39.4
2022-11-02T08:42:28.656Z,39.3
2022-11-02T08:43:41.641Z,39.3
2022-11-02T08:44:43.810Z,39.2
2022-11-02T08:46:15.752Z,39.2
2022-11-02T08:47:09.672Z,39.2
2022-11-02T08:48:22.617Z,39.2
2022-11-02T08:49:24.715Z,39.2
2022-11-02T08:50:37.589Z,39.1
2022-11-02T08:51:49.610Z,39.0
2022-11-02T08:52:52.631Z,39.1
2022-11-02T08:54:04.572Z,39.0
2022-11-02T08:55:17.124Z,39.0
2022-11-02T08:56:29.128Z,39.0
2022-11-02T08:57:32.135Z,38.9
2022-11-02T08:58:44.076Z,38.9
2022-11-02T08:59:56.638Z,38.9
2022-11-02T09:01:08.717Z,38.9
2022-11-02T09:02:11.744Z,38.8
2022-11-02T09:03:26.993Z,38.9
2022-11-02T09:04:30.616Z,38.8
2022-11-02T09:05:42.554Z,38.8
2022-11-02T09:06:55.149Z,38.8
2022-11-02T09:08:07.449Z,38.7
2022-11-02T09:09:10.609Z,38.8
2022-11-02T09:10:22.672Z,38.7
2022-11-02T09:11:35.629Z,38.7
2022-11-02T09:12:37.697Z,38.7
2022-11-02T09:13:55.625Z,38.7
2022-11-02T09:14:59.027Z,38.6
2022-11-02T09:16:11.132Z,38.6
2022-11-02T09:17:23.124Z,38.7
2022-11-02T09:18:36.112Z,38.6
2022-11-02T09:19:38.249Z,38.7
2022-11-02T09:20:51.143Z,38.6
2022-11-02T09:22:05.770Z,38.6
2022-11-02T09:23:09.107Z,38.5
2022-11-02T09:24:21.086Z,38.5
2022-11-02T09:25:33.605Z,38.6
2022-11-02T09:26:35.712Z,38.5
2022-11-02T09:27:52.930Z,38.6
2022-11-02T09:28:57.449Z,38.5
2022-11-02T09:30:10.128Z,38.5
2022-11-02T09:31:22.092Z,38.4
2022-11-02T09:32:25.115Z,38.5
2022-11-02T09:33:37.091Z,38.5
2022-11-02T09:34:49.606Z,38.5
2022-11-02T09:36:01.510Z,38.5
2022-11-02T09:37:04.622Z,38.4
2022-11-02T09:38:16.595Z,38.4
2022-11-02T09:39:29.148Z,38.4
2022-11-02T09:40:41.198Z,38.3
2022-11-02T09:41:44.147Z,38.3
2022-11-02T09:42:56.086Z,38.3
2022-11-02T09:44:08.629Z,38.2
2022-11-02T09:45:20.573Z,38.2
2022-11-02T09:46:23.693Z,38.2
2022-11-02T09:48:15.315Z,38.3
2022-11-02T09:48:51.138Z,38.3
2022-11-02T09:49:53.142Z,38.2
2022-11-02T09:51:05.649Z,38.2
2022-11-02T09:52:17.566Z,38.2
2022-11-02T09:53:20.609Z,38.2
2022-11-02T09:54:32.517Z,38.2
2022-11-02T09:55:45.141Z,38.2
2022-11-02T09:56:57.080Z,38.2
2022-11-02T09:58:00.152Z,38.2
2022-11-02T09:59:12.109Z,38.2
2022-11-02T10:00:24.620Z,38.3
2022-11-02T10:01:36.549Z,38.2
2022-11-02T10:02:39.669Z,38.2
2022-11-02T10:03:51.720Z,38.2
2022-11-02T10:05:04.659Z,38.2
2022-11-02T10:06:16.605Z,38.2
2022-11-02T10:07:19.645Z,38.2
2022-11-02T10:08:31.792Z,38.2
2022-11-02T10:09:44.634Z,38.2
2022-11-02T10:10:46.664Z,38.2
2022-11-02T10:11:59.167Z,38.1
2022-11-02T10:13:11.120Z,38.2
2022-11-02T10:14:23.650Z,38.2
2022-11-02T10:15:25.730Z,38.2
2022-11-02T10:16:38.662Z,38.2
2022-11-02T10:17:50.589Z,38.0
2022-11-02T10:19:03.154Z,38.0
2022-11-02T10:20:05.243Z,38.0
2022-11-02T10:21:18.160Z,38.0
2022-11-02T10:22:30.022Z,38.0
2022-11-02T10:23:42.637Z,38.0
2022-11-02T10:24:44.661Z,38.0
2022-11-02T10:25:57.125Z,38.0
2022-11-02T10:27:13.124Z,38.0
2022-11-02T10:28:17.251Z,38.0
2022-11-02T10:29:29.239Z,37.9
2022-11-02T10:30:41.669Z,37.9
2022-11-02T10:31:43.667Z,37.9
2022-11-02T10:32:56.127Z,37.9
2022-11-02T10:34:08.030Z,37.9
2022-11-02T10:35:37.208Z,37.8
2022-11-02T10:36:23.816Z,37.9
2022-11-02T10:37:35.676Z,37.9
2022-11-02T10:38:48.151Z,37.9
2022-11-02T10:39:59.967Z,37.8
2022-11-02T10:41:02.655Z,37.8
2022-11-02T10:42:14.539Z,37.8
2022-11-02T10:43:27.173Z,37.8
2022-11-02T10:44:39.063Z,37.8
2022-11-02T10:45:41.657Z,37.8
2022-11-02T10:46:53.568Z,37.7
2022-11-02T10:48:06.494Z,37.7
2022-11-02T10:49:18.718Z,37.7
2022-11-02T10:50:21.636Z,37.7
2022-11-02T10:51:33.509Z,37.6
2022-11-02T10:52:46.141Z,37.6
2022-11-02T10:53:58.050Z,37.6
2022-11-02T10:55:01.142Z,37.7
2022-11-02T10:56:13.031Z,37.5
2022-11-02T10:57:25.643Z,37.4
2022-11-02T10:58:27.691Z,37.4
2022-11-02T10:59:40.185Z,37.4
2022-11-02T11:00:52.098Z,37.4
2022-11-02T11:02:04.708Z,37.4
2022-11-02T11:03:06.873Z,37.4
2022-11-02T11:04:19.654Z,37.4
2022-11-02T11:05:31.535Z,37.6
2022-11-02T11:06:44.161Z,37.5
2022-11-02T11:07:46.195Z,37.5
2022-11-02T11:08:58.673Z,37.5
2022-11-02T11:10:10.569Z,37.5
2022-11-02T11:11:23.161Z,37.4
2022-11-02T11:12:25.140Z,37.4
2022-11-02T11:16:02.045Z,37.4
2022-11-02T11:19:41.685Z,37.3
2022-11-02T11:20:34.154Z,37.3
2022-11-02T11:21:46.678Z,37.3
2022-11-02T11:22:58.575Z,37.3
2022-11-02T11:24:11.184Z,37.2
2022-11-02T11:25:13.323Z,37.3
2022-11-02T11:26:26.140Z,37.3
2022-11-02T11:27:38.065Z,37.2
2022-11-02T11:29:00.680Z,37.3
2022-11-02T11:29:52.916Z,37.4
2022-11-02T11:31:05.695Z,37.3
2022-11-02T11:32:17.607Z,37.3
2022-11-02T11:33:30.162Z,37.4
2022-11-02T11:34:32.169Z,37.4
2022-11-02T11:35:44.671Z,37.3
2022-11-02T11:36:56.779Z,37.4
2022-11-02T11:38:09.653Z,37.4
2022-11-02T11:39:11.673Z,37.4
2022-11-02T11:40:24.161Z,37.4
2022-11-02T11:41:36.165Z,37.4
2022-11-02T11:42:39.161Z,37.4
2022-11-02T11:43:51.073Z,37.5
2022-11-02T11:45:03.665Z,37.4
2022-11-02T11:46:15.601Z,37.4
2022-11-02T11:47:18.687Z,37.4
2022-11-02T11:48:30.591Z,37.4
2022-11-02T11:50:08.469Z,37.4
2022-11-02T11:50:54.519Z,37.4
2022-11-02T11:51:56.628Z,37.3
2022-11-02T11:53:09.184Z,37.4
2022-11-02T11:54:21.087Z,37.4
2022-11-02T11:55:33.748Z,37.4
2022-11-02T11:56:35.770Z,37.3
2022-11-02T11:57:48.697Z,37.3
2022-11-02T11:59:00.618Z,37.2
2022-11-02T12:00:13.171Z,37.2
2022-11-02T12:01:15.243Z,37.3
2022-11-02T12:02:28.254Z,37.2
2022-11-02T12:03:40.330Z,37.2
2022-11-02T12:04:53.231Z,37.2
2022-11-02T12:05:55.263Z,37.2
2022-11-02T12:07:08.163Z,37.2
2022-11-02T12:08:20.074Z,37.2
2022-11-02T12:09:32.960Z,37.1
2022-11-02T12:10:34.944Z,37.2
2022-11-02T12:11:47.732Z,37.1
2022-11-02T12:12:59.558Z,37.2
2022-11-02T12:14:02.159Z,37.2
2022-11-02T12:15:14.060Z,37.1
2022-11-02T12:16:26.691Z,37.2
2022-11-02T12:17:38.564Z,37.2
2022-11-02T12:18:41.693Z,37.1
2022-11-02T12:19:53.599Z,37.1
2022-11-02T12:21:06.189Z,37.1
2022-11-02T12:22:18.073Z,37.1
2022-11-02T12:23:21.174Z,37.1
2022-11-02T12:24:33.083Z,37.1
2022-11-02T12:25:45.721Z,37.0
2022-11-02T12:26:57.586Z,37.1
2022-11-02T12:28:00.184Z,37.1
2022-11-02T12:29:12.062Z,37.0
2022-11-02T12:30:24.671Z,37.0
2022-11-02T12:31:36.546Z,36.9
2022-11-02T12:32:39.177Z,36.9
2022-11-02T12:33:50.956Z,36.9
2022-11-02T12:35:28.877Z,36.9
2022-11-02T12:36:12.318Z,36.9
2022-11-02T12:37:39.129Z,36.8
2022-11-02T12:38:32.986Z,36.8
2022-11-02T12:39:34.938Z,36.8
2022-11-02T12:40:48.174Z,36.8
2022-11-02T12:41:59.960Z,36.7
2022-11-02T12:43:12.704Z,36.8
2022-11-02T12:44:14.658Z,36.8
2022-11-02T12:45:27.201Z,36.6
2022-11-02T12:46:41.332Z,35.8
2022-11-02T12:47:47.700Z,35.4
2022-11-02T12:48:59.507Z,35.0
2022-11-02T12:50:12.180Z,34.7
2022-11-02T12:51:14.175Z,34.6
2022-11-02T12:52:26.695Z,34.1
2022-11-02T12:53:38.512Z,33.9
2022-11-02T12:54:51.177Z,33.5
2022-11-02T12:55:53.181Z,33.2
2022-11-02T12:57:06.201Z,32.9
2022-11-02T12:58:18.027Z,32.9
2022-11-02T12:59:20.699Z,32.7
2022-11-02T13:00:32.531Z,32.8
2022-11-02T13:01:45.510Z,32.4
2022-11-02T13:02:57.472Z,32.1
2022-11-02T13:04:00.177Z,32.0
2022-11-02T13:05:11.963Z,31.8
2022-11-02T13:06:24.756Z,31.8
2022-11-02T13:07:36.621Z,31.8
2022-11-02T13:08:39.291Z,32.0
2022-11-02T13:09:51.643Z,32.3
2022-11-02T13:11:04.720Z,32.5
2022-11-02T13:12:06.717Z,32.7
2022-11-02T13:13:19.181Z,32.9
2022-11-02T13:14:30.996Z,32.8
2022-11-02T13:15:43.693Z,32.9
2022-11-02T13:16:45.656Z,32.9
2022-11-02T13:17:58.210Z,33.1
2022-11-02T13:19:09.940Z,33.1
2022-11-02T13:20:22.690Z,33.2
2022-11-02T13:21:24.646Z,33.2
2022-11-02T13:22:37.203Z,33.3
2022-11-02T13:23:49.034Z,33.3
2022-11-02T13:25:02.214Z,33.2
2022-11-02T13:26:04.188Z,33.2
2022-11-02T13:27:35.440Z,33.2
2022-11-02T13:28:28.854Z,33.3
2022-11-02T13:29:41.197Z,33.4
2022-11-02T13:30:43.155Z,33.4
2022-11-02T13:31:55.703Z,33.4
2022-11-02T13:33:07.926Z,33.4
2022-11-02T13:34:10.681Z,33.3
2022-11-02T13:35:22.472Z,33.3
2022-11-02T13:36:35.233Z,33.4
2022-11-02T13:37:46.991Z,33.4
2022-11-02T13:38:49.705Z,33.4
2022-11-02T13:40:01.467Z,33.4
2022-11-02T13:41:14.215Z,33.3
2022-11-02T13:42:35.557Z,33.3
2022-11-02T13:43:28.732Z,33.3
2022-11-02T13:44:40.447Z,33.3
2022-11-02T13:45:53.261Z,33.2
2022-11-02T13:47:04.991Z,33.2
2022-11-02T13:48:08.413Z,33.2
2022-11-02T13:49:20.265Z,33.2
2022-11-02T13:50:32.693Z,33.1
2022-11-02T13:51:44.482Z,33.1
2022-11-02T13:52:47.224Z,33.1
2022-11-02T13:53:59.049Z,33.0
2022-11-02T13:55:11.727Z,33.1
2022-11-02T13:56:13.711Z,33.0
2022-11-02T13:57:26.234Z,33.0
2022-11-02T13:58:37.991Z,33.0
2022-11-02T13:59:50.760Z,32.9
2022-11-02T14:00:52.700Z,32.9
2022-11-02T14:02:05.318Z,33.0
2022-11-02T14:03:17.248Z,33.2
2022-11-02T14:04:29.710Z,33.3
2022-11-02T14:05:31.590Z,33.5
2022-11-02T14:06:44.245Z,33.6
2022-11-02T14:07:56.017Z,33.7
2022-11-02T14:09:08.741Z,33.8
2022-11-02T14:10:10.702Z,33.8
2022-11-02T14:11:23.227Z,33.7
2022-11-02T14:12:34.971Z,33.6
2022-11-02T14:13:47.721Z,33.6
2022-11-02T14:14:49.640Z,33.5
2022-11-02T14:16:02.229Z,33.4
2022-11-02T14:17:13.970Z,33.4
2022-11-02T14:18:26.231Z,33.3
2022-11-02T14:19:28.136Z,33.2
2022-11-02T14:20:40.715Z,33.2
2022-11-02T14:21:52.385Z,33.1
2022-11-02T14:23:05.495Z,33.1
2022-11-02T14:24:07.747Z,33.0
2022-11-02T14:25:20.220Z,33.0
2022-11-02T14:26:31.980Z,32.9
2022-11-02T14:27:34.775Z,33.0
2022-11-02T14:28:46.491Z,32.9
2022-11-02T14:29:59.199Z,32.9
2022-11-02T14:31:10.980Z,32.8
2022-11-02T14:32:13.742Z,32.9
2022-11-02T14:33:26.640Z,32.8
2022-11-02T14:34:39.259Z,32.8
2022-11-02T14:35:41.180Z,32.9
2022-11-02T14:36:53.736Z,32.8
2022-11-02T14:38:05.729Z,32.8
2022-11-02T14:39:18.745Z,32.8
2022-11-02T14:40:20.753Z,32.7
2022-11-02T14:41:33.275Z,32.8
2022-11-02T14:42:44.989Z,32.8
2022-11-02T14:43:57.751Z,33.0
2022-11-02T14:44:59.592Z,32.9
2022-11-02T14:46:12.259Z,32.9
2022-11-02T14:47:23.987Z,32.9
2022-11-02T14:48:36.729Z,32.9
2022-11-02T14:49:38.654Z,32.9
2022-11-02T14:50:51.256Z,32.9
2022-11-02T14:52:04.553Z,33.0
2022-11-02T14:53:08.125Z,33.0
2022-11-02T14:54:20.154Z,33.2
2022-11-02T14:55:33.238Z,33.2
2022-11-02T14:56:35.150Z,33.2
2022-11-02T14:57:47.737Z,33.2
2022-11-02T14:58:59.469Z,33.2
2022-11-02T15:00:11.751Z,33.3
2022-11-02T15:01:13.688Z,33.4
2022-11-02T15:02:26.279Z,33.5
2022-11-02T15:03:38.049Z,33.6
2022-11-02T15:04:50.724Z,33.5
2022-11-02T15:05:52.716Z,33.6
2022-11-02T15:07:05.258Z,33.6
2022-11-02T15:08:16.998Z,33.7
2022-11-02T15:09:29.782Z,33.8
2022-11-02T15:10:31.695Z,33.8
2022-11-02T15:11:44.254Z,33.8
2022-11-02T15:14:22.458Z,34.1
2022-11-02T15:15:14.632Z,34.2
2022-11-02T15:16:27.064Z,34.4
2022-11-02T15:17:29.040Z,34.5
2022-11-02T15:18:41.562Z,34.7
2022-11-02T15:19:53.380Z,34.9
2022-11-02T15:21:06.065Z,35.1
2022-11-02T15:22:08.141Z,35.2
2022-11-02T15:23:29.965Z,35.3
2022-11-02T15:24:33.651Z,35.4
2022-11-02T15:25:36.566Z,35.6
2022-11-02T15:26:48.501Z,35.6
2022-11-02T15:28:01.035Z,35.7
2022-11-02T15:29:12.908Z,35.8
2022-11-02T15:30:15.546Z,35.9
2022-11-02T15:31:27.435Z,36.0
2022-11-02T15:32:40.069Z,36.1
2022-11-02T15:33:51.923Z,36.2
2022-11-02T15:34:54.585Z,36.4
2022-11-02T15:36:06.504Z,36.4
2022-11-02T15:37:19.040Z,36.5
2022-11-02T15:38:35.293Z,36.6
2022-11-02T15:39:41.545Z,36.7
2022-11-02T15:40:43.617Z,36.8
2022-11-02T15:41:56.581Z,36.9
2022-11-02T15:43:08.552Z,37.0